createdAt,value
2018-08-19T00:00:47.559Z,5.10
2018-08-19T00:03:52.134Z,4.60
2018-08-19T00:06:56.526Z,5.50
2018-08-19T00:10:00.768Z,5.17
2018-08-19T00:13:06.974Z,4.77
2018-08-19T00:16:11.790Z,4.97
2018-08-19T00:19:16.017Z,4.87
2018-08-19T00:22:20.261Z,4.70
2018-08-19T00:25:42.539Z,5.90
2018-08-19T00:28:46.716Z,4.60
2018-08-19T00:31:51.676Z,4.70
2018-08-19T00:34:55.913Z,5.00
2018-08-19T00:38:00.552Z,4.93
2018-08-19T00:41:04.797Z,4.87
2018-08-19T00:44:09.054Z,4.87
2018-08-19T00:47:13.273Z,4.43
2018-08-19T00:50:17.549Z,4.33
2018-08-19T00:53:21.809Z,5.50
2018-08-19T00:56:26.052Z,4.93
2018-08-19T00:59:31.528Z,4.53
2018-08-19T01:02:35.876Z,4.70
2018-08-19T01:05:40.233Z,4.83
2018-08-19T01:08:44.470Z,4.40
2018-08-19T01:11:48.699Z,4.47
2018-08-19T01:14:52.903Z,4.23
2018-08-19T01:17:57.872Z,4.03
2018-08-19T01:21:10.719Z,4.60
2018-08-19T01:24:14.957Z,4.07
2018-08-19T01:27:19.209Z,5.10
2018-08-19T01:30:27.057Z,5.03
2018-08-19T01:33:31.281Z,5.07
2018-08-19T01:36:35.524Z,5.23
2018-08-19T01:39:39.949Z,4.63
2018-08-19T01:42:44.214Z,5.30
2018-08-19T01:45:48.460Z,4.73
2018-08-19T01:48:53.126Z,5.80
2018-08-19T01:51:57.634Z,5.50
2018-08-19T01:55:01.861Z,5.10
2018-08-19T01:58:06.269Z,5.00
2018-08-19T02:01:10.504Z,5.20
2018-08-19T02:04:14.757Z,4.93
2018-08-19T02:07:19.004Z,6.23
2018-08-19T02:10:24.446Z,5.43
2018-08-19T02:13:28.684Z,5.33
2018-08-19T02:16:32.954Z,5.87
2018-08-19T02:19:37.157Z,5.20
2018-08-19T02:22:45.925Z,5.70
2018-08-19T02:25:50.165Z,5.03
2018-08-19T02:28:54.405Z,5.20
2018-08-19T02:32:05.404Z,4.77
2018-08-19T02:35:09.624Z,5.23
2018-08-19T02:38:13.980Z,5.47
2018-08-19T02:41:18.222Z,4.13
2018-08-19T02:44:22.488Z,5.17
2018-08-19T02:47:26.718Z,5.37
2018-08-19T02:50:30.969Z,5.00
2018-08-19T02:53:35.233Z,5.40
2018-08-19T02:56:39.600Z,4.90
2018-08-19T02:59:43.861Z,5.30
2018-08-19T03:02:48.077Z,4.60
2018-08-19T03:05:56.933Z,4.83
2018-08-19T03:09:01.153Z,4.27
2018-08-19T03:12:10.244Z,4.37
2018-08-19T03:15:15.557Z,4.67
2018-08-19T03:18:19.810Z,4.40
2018-08-19T03:21:24.049Z,5.20
2018-08-19T03:24:28.333Z,5.30
2018-08-19T03:27:33.644Z,5.23
2018-08-19T03:30:38.066Z,4.80
2018-08-19T03:33:42.292Z,4.70
2018-08-19T03:36:46.530Z,5.70
2018-08-19T03:39:50.760Z,4.40
2018-08-19T03:42:55.344Z,5.63
2018-08-19T03:46:07.137Z,4.67
2018-08-19T03:49:11.390Z,4.90
2018-08-19T03:52:16.254Z,4.60
2018-08-19T03:55:28.780Z,4.93
2018-08-19T03:58:33.029Z,4.27
2018-08-19T04:01:44.335Z,4.53
2018-08-19T04:04:49.217Z,4.77
2018-08-19T04:07:53.441Z,4.77
2018-08-19T04:10:57.709Z,5.20
2018-08-19T04:14:01.929Z,5.20
2018-08-19T04:17:07.421Z,5.33
2018-08-19T04:20:11.648Z,5.27
2018-08-19T04:23:15.901Z,5.10
2018-08-19T04:26:20.113Z,5.37
2018-08-19T04:29:24.694Z,5.83
2018-08-19T04:32:31.168Z,5.97
2018-08-19T04:35:35.408Z,5.77
2018-08-19T04:38:39.637Z,5.97
2018-08-19T04:41:43.871Z,6.00
2018-08-19T04:44:48.117Z,6.73
2018-08-19T04:47:52.344Z,6.07
2018-08-19T04:50:57.290Z,6.47
2018-08-19T04:54:05.708Z,6.63
2018-08-19T04:57:09.988Z,6.37
2018-08-19T05:00:14.221Z,6.03
2018-08-19T05:03:18.481Z,6.00
2018-08-19T05:06:22.721Z,6.40
2018-08-19T05:09:27.013Z,6.37
2018-08-19T05:12:31.270Z,6.17
2018-08-19T05:15:35.616Z,5.33
2018-08-19T05:18:39.809Z,5.50
2018-08-19T05:21:44.073Z,6.40
2018-08-19T05:24:48.335Z,5.63
2018-08-19T05:27:57.969Z,6.00
2018-08-19T05:31:02.222Z,5.40
2018-08-19T05:34:07.101Z,7.27
2018-08-19T05:37:11.337Z,5.57
2018-08-19T05:40:15.587Z,6.40
2018-08-19T05:43:19.810Z,5.33
2018-08-19T05:46:24.080Z,5.37
2018-08-19T05:49:28.381Z,5.40
2018-08-19T05:52:32.617Z,5.83
2018-08-19T05:55:36.875Z,5.90
2018-08-19T05:58:41.068Z,5.57
2018-08-19T06:01:45.314Z,6.33
2018-08-19T06:04:49.641Z,5.30
2018-08-19T06:07:59.290Z,5.77
2018-08-19T06:11:03.554Z,5.00
2018-08-19T06:14:07.806Z,5.37
2018-08-19T06:17:12.082Z,5.30
2018-08-19T06:20:16.329Z,4.60
2018-08-19T06:23:22.096Z,4.63
2018-08-19T06:26:30.773Z,5.50
2018-08-19T06:29:47.793Z,5.23
2018-08-19T06:32:52.112Z,4.73
2018-08-19T06:35:56.352Z,5.13
2018-08-19T06:39:00.586Z,5.23
2018-08-19T06:42:04.840Z,4.60
2018-08-19T06:45:10.265Z,4.73
2018-08-19T06:48:14.522Z,5.17
2018-08-19T06:51:18.941Z,5.63
2018-08-19T06:54:23.024Z,6.03
2018-08-19T06:57:29.730Z,5.13
2018-08-19T07:00:34.002Z,5.27
2018-08-19T07:03:41.599Z,4.23
2018-08-19T07:06:46.049Z,4.90
2018-08-19T07:09:50.339Z,5.40
2018-08-19T07:13:00.760Z,4.47
2018-08-19T07:16:09.756Z,4.87
2018-08-19T07:19:14.037Z,5.07
2018-08-19T07:22:20.246Z,5.00
2018-08-19T07:25:24.515Z,5.30
2018-08-19T07:28:29.788Z,4.73
2018-08-19T07:31:34.033Z,5.20
2018-08-19T07:34:38.389Z,5.23
2018-08-19T07:37:43.026Z,4.87
2018-08-19T07:40:47.416Z,5.77
2018-08-19T07:43:51.757Z,4.87
2018-08-19T07:46:56.056Z,5.17
2018-08-19T07:50:00.426Z,5.30
2018-08-19T07:53:04.728Z,5.57
2018-08-19T07:56:09.095Z,4.90
2018-08-19T07:59:15.090Z,5.30
2018-08-19T08:02:19.566Z,5.23
2018-08-19T08:05:24.828Z,5.20
2018-08-19T08:08:29.157Z,5.30
2018-08-19T08:11:33.606Z,5.00
2018-08-19T08:14:38.766Z,5.07
2018-08-19T08:17:43.132Z,5.73
2018-08-19T08:20:47.449Z,4.90
2018-08-19T08:23:51.984Z,5.07
2018-08-19T08:26:56.356Z,5.23
2018-08-19T08:30:05.041Z,5.10
2018-08-19T08:33:09.369Z,5.30
2018-08-19T08:36:13.894Z,5.30
2018-08-19T08:39:18.192Z,5.17
2018-08-19T08:42:23.583Z,5.27
2018-08-19T08:45:32.851Z,5.43
2018-08-19T08:48:37.878Z,5.85
2018-08-19T08:51:42.324Z,5.80
2018-08-19T08:54:50.649Z,5.60
2018-08-19T08:57:55.912Z,5.53
2018-08-19T09:01:01.032Z,6.00
2018-08-19T09:04:05.356Z,6.03
2018-08-19T09:07:10.209Z,5.67
2018-08-19T09:10:14.837Z,5.67
2018-08-19T09:13:19.212Z,5.63
2018-08-19T09:16:23.510Z,4.93
2018-08-19T09:19:28.349Z,6.23
2018-08-19T09:22:32.716Z,6.20
2018-08-19T09:25:37.081Z,5.63
2018-08-19T09:28:41.358Z,5.77
2018-08-19T09:31:45.795Z,5.33
2018-08-19T09:34:50.299Z,5.87
2018-08-19T09:38:01.507Z,5.50
2018-08-19T09:41:07.138Z,5.60
2018-08-19T09:44:11.588Z,5.10
2018-08-19T09:47:17.004Z,5.73
2018-08-19T09:50:22.740Z,5.27
2018-08-19T09:53:27.158Z,5.23
2018-08-19T09:56:36.737Z,6.07
2018-08-19T09:59:41.166Z,6.00
2018-08-19T10:02:49.880Z,5.40
2018-08-19T10:05:55.334Z,5.50
2018-08-19T10:08:59.842Z,5.80
2018-08-19T10:12:04.236Z,5.20
2018-08-19T10:15:08.673Z,5.40
2018-08-19T10:18:13.161Z,5.27
2018-08-19T10:21:19.155Z,5.47
2018-08-19T10:24:29.110Z,5.43
2018-08-19T10:27:33.341Z,5.43
2018-08-19T10:30:47.190Z,5.43
2018-08-19T10:33:52.199Z,5.57
2018-08-19T10:36:57.174Z,5.53
2018-08-19T10:40:01.512Z,5.60
2018-08-19T10:43:08.761Z,5.50
2018-08-19T10:46:13.092Z,5.60
2018-08-19T10:49:17.324Z,5.90
2018-08-19T10:52:26.124Z,6.93
2018-08-19T10:55:30.541Z,5.83
2018-08-19T10:58:34.815Z,6.20
2018-08-19T11:01:39.164Z,6.60
2018-08-19T11:04:43.516Z,6.43
2018-08-19T11:07:47.725Z,6.30
2018-08-19T11:10:52.024Z,5.80
2018-08-19T11:13:56.311Z,6.50
2018-08-19T11:17:00.582Z,6.73
2018-08-19T11:20:04.880Z,6.70
2018-08-19T11:23:15.310Z,6.60
2018-08-19T11:26:20.272Z,5.87
2018-08-19T11:29:25.269Z,6.20
2018-08-19T11:32:37.473Z,6.07
2018-08-19T11:35:47.592Z,7.00
2018-08-19T11:38:53.473Z,5.23
2018-08-19T11:41:59.648Z,5.77
2018-08-19T11:45:09.017Z,6.30
2018-08-19T11:48:13.478Z,6.07
2018-08-19T11:51:18.082Z,6.13
2018-08-19T11:54:23.425Z,5.47
2018-08-19T11:57:28.695Z,6.37
2018-08-19T12:00:38.640Z,5.30
2018-08-19T12:04:01.365Z,6.20
2018-08-19T12:07:06.393Z,5.37
2018-08-19T12:10:10.638Z,5.80
2018-08-19T12:13:14.870Z,5.30
2018-08-19T12:16:19.977Z,5.47
2018-08-19T12:19:31.753Z,5.63
2018-08-19T12:22:36.017Z,5.77
2018-08-19T12:25:40.230Z,5.90
2018-08-19T12:28:44.479Z,6.00
2018-08-19T12:31:49.697Z,6.37
2018-08-19T12:34:55.286Z,5.70
2018-08-19T12:37:59.524Z,5.77
2018-08-19T12:41:05.186Z,5.87
2018-08-19T12:44:09.446Z,6.50
2018-08-19T12:47:18.333Z,6.10
2018-08-19T12:50:22.643Z,5.90
2018-08-19T12:53:26.821Z,5.73
2018-08-19T12:56:31.094Z,6.40
2018-08-19T12:59:35.861Z,6.37
2018-08-19T13:02:43.244Z,6.27
2018-08-19T13:06:00.920Z,5.93
2018-08-19T13:09:07.580Z,5.30
2018-08-19T13:12:13.012Z,5.63
2018-08-19T13:15:17.240Z,6.30
2018-08-19T13:18:28.509Z,5.80
2018-08-19T13:21:32.761Z,6.10
2018-08-19T13:24:39.002Z,5.80
2018-08-19T13:27:43.217Z,5.83
2018-08-19T13:30:47.472Z,5.80
2018-08-19T13:33:51.723Z,5.83
2018-08-19T13:36:56.481Z,6.60
2018-08-19T13:40:00.709Z,6.30
2018-08-19T13:43:05.300Z,7.10
2018-08-19T13:46:09.523Z,7.50
2018-08-19T13:49:13.791Z,6.80
2018-08-19T13:52:18.042Z,7.00
2018-08-19T13:55:22.289Z,7.67
2018-08-19T13:58:26.489Z,8.17
2018-08-19T14:01:30.742Z,8.23
2018-08-19T14:04:34.956Z,8.03
2018-08-19T14:07:39.193Z,8.30
2018-08-19T14:10:43.437Z,8.07
2018-08-19T14:13:47.670Z,7.77
2018-08-19T14:16:51.904Z,7.97
2018-08-19T14:19:56.138Z,8.17
2018-08-19T14:23:00.392Z,7.47
2018-08-19T14:26:04.643Z,7.20
2018-08-19T14:29:08.924Z,6.93
2018-08-19T14:32:45.573Z,7.70
2018-08-19T14:35:49.913Z,8.23
2018-08-19T14:38:54.162Z,8.73
2018-08-19T14:41:58.397Z,8.77
2018-08-19T14:45:02.686Z,9.67
2018-08-19T14:48:07.087Z,8.97
2018-08-19T14:51:11.334Z,9.10
2018-08-19T14:54:18.889Z,9.43
2018-08-19T14:57:23.225Z,8.63
2018-08-19T15:00:27.463Z,8.27
2018-08-19T15:03:32.129Z,7.50
2018-08-19T15:06:36.369Z,7.60
2018-08-19T15:09:40.615Z,7.67
2018-08-19T15:12:44.833Z,7.60
2018-08-19T15:15:49.041Z,8.33
2018-08-19T15:18:53.238Z,7.67
2018-08-19T15:21:57.579Z,7.23
2018-08-19T15:25:01.842Z,7.40
2018-08-19T15:28:06.072Z,7.00
2018-08-19T15:31:14.364Z,7.20
2018-08-19T15:34:19.265Z,6.77
2018-08-19T15:37:23.489Z,7.53
2018-08-19T15:40:43.516Z,7.03
2018-08-19T15:43:47.750Z,7.93
2018-08-19T15:46:52.006Z,7.10
2018-08-19T15:50:13.347Z,6.97
2018-08-19T15:53:18.504Z,7.73
2018-08-19T15:56:22.748Z,7.30
2018-08-19T15:59:27.027Z,7.67
2018-08-19T16:02:31.281Z,7.73
2018-08-19T16:05:35.504Z,8.37
2018-08-19T16:08:39.729Z,7.90
2018-08-19T16:11:44.361Z,8.80
2018-08-19T16:14:48.677Z,9.33
2018-08-19T16:17:54.747Z,8.70
2018-08-19T16:21:04.190Z,9.20
2018-08-19T16:24:09.022Z,9.93
2018-08-19T16:27:13.300Z,9.53
2018-08-19T16:30:17.609Z,9.77
2018-08-19T16:33:21.875Z,10.07
2018-08-19T16:36:26.118Z,8.73
2018-08-19T16:39:30.349Z,8.83
2018-08-19T16:42:34.584Z,9.63
2018-08-19T16:45:38.814Z,9.97
2018-08-19T16:48:43.037Z,8.87
2018-08-19T16:51:47.279Z,9.20
2018-08-19T16:54:51.533Z,9.93
2018-08-19T16:57:55.727Z,10.13
2018-08-19T17:00:59.974Z,9.97
2018-08-19T17:04:04.225Z,9.50
2018-08-19T17:07:10.857Z,9.60
2018-08-19T17:10:15.224Z,8.90
2018-08-19T17:13:19.346Z,9.17
2018-08-19T17:16:23.598Z,8.70
2018-08-19T17:19:27.881Z,9.13
2018-08-19T17:22:32.137Z,8.83
2018-08-19T17:25:36.367Z,9.90
2018-08-19T17:28:40.589Z,9.03
2018-08-19T17:31:44.800Z,9.37
2018-08-19T17:34:49.021Z,10.13
2018-08-19T17:37:54.685Z,9.50
2018-08-19T17:40:59.349Z,9.83
2018-08-19T17:44:03.859Z,9.50
2018-08-19T17:47:08.185Z,9.87
2018-08-19T17:50:17.056Z,9.20
2018-08-19T17:53:21.328Z,10.03
2018-08-19T17:56:25.614Z,9.87
2018-08-19T17:59:29.933Z,11.03
2018-08-19T18:02:34.150Z,12.20
2018-08-19T18:05:38.389Z,12.27
2018-08-19T18:08:47.905Z,14.83
2018-08-19T18:11:57.347Z,13.80
2018-08-19T18:15:02.250Z,13.83
2018-08-19T18:18:06.842Z,13.80
2018-08-19T18:21:10.923Z,13.07
2018-08-19T18:24:15.204Z,13.03
2018-08-19T18:27:20.332Z,12.20
2018-08-19T18:30:26.329Z,12.30
2018-08-19T18:33:30.592Z,13.00
2018-08-19T18:36:35.771Z,11.50
2018-08-19T18:39:43.509Z,11.17
2018-08-19T18:42:47.725Z,10.80
2018-08-19T18:45:52.041Z,10.60
2018-08-19T18:49:02.753Z,10.10
2018-08-19T18:52:12.310Z,10.27
2018-08-19T18:55:16.540Z,9.83
2018-08-19T18:58:20.776Z,9.97
2018-08-19T19:01:25.065Z,10.50
2018-08-19T19:04:29.421Z,10.43
2018-08-19T19:07:33.721Z,10.40
2018-08-19T19:10:38.677Z,10.47
2018-08-19T19:13:42.909Z,10.50
2018-08-19T19:16:50.924Z,9.60
2018-08-19T19:19:55.180Z,10.67
2018-08-19T19:23:03.336Z,10.83
2018-08-19T19:26:08.361Z,12.33
2018-08-19T19:29:20.857Z,12.80
2018-08-19T19:32:25.537Z,13.97
2018-08-19T19:35:30.313Z,16.07
2018-08-19T19:38:37.722Z,15.50
2018-08-19T19:41:41.929Z,16.27
2018-08-19T19:44:46.161Z,15.00
2018-08-19T19:47:50.420Z,14.27
2018-08-19T19:50:54.664Z,14.87
2018-08-19T19:53:58.932Z,15.10
2018-08-19T19:57:03.190Z,15.90
2018-08-19T20:00:07.426Z,14.80
2018-08-19T20:03:11.681Z,14.90
2018-08-19T20:06:15.937Z,16.73
2018-08-19T20:09:20.182Z,17.40
2018-08-19T20:12:29.784Z,18.13
2018-08-19T20:15:33.996Z,18.57
2018-08-19T20:18:38.233Z,19.90
2018-08-19T20:21:42.492Z,19.00
2018-08-19T20:24:47.129Z,18.97
2018-08-19T20:27:55.420Z,18.37
2018-08-19T20:30:59.675Z,16.10
2018-08-19T20:34:03.996Z,18.07
2018-08-19T20:37:08.205Z,17.23
2018-08-19T20:40:12.457Z,17.57
2018-08-19T20:43:20.649Z,16.30
2018-08-19T20:46:24.889Z,15.10
2018-08-19T20:49:29.131Z,15.00
2018-08-19T20:52:43.304Z,13.57
2018-08-19T20:55:48.048Z,13.57
2018-08-19T20:58:52.301Z,12.90
2018-08-19T21:01:56.569Z,11.47
2018-08-19T21:05:00.836Z,12.47
2018-08-19T21:08:11.192Z,12.60
2018-08-19T21:11:15.449Z,12.03
2018-08-19T21:14:19.712Z,11.87
2018-08-19T21:17:23.940Z,11.93
2018-08-19T21:20:28.189Z,12.87
2018-08-19T21:23:32.420Z,11.47
2018-08-19T21:26:36.640Z,11.67
2018-08-19T21:29:40.915Z,11.87
2018-08-19T21:32:45.140Z,11.73
2018-08-19T21:35:50.981Z,11.17
2018-08-19T21:38:55.201Z,11.53
2018-08-19T21:41:59.470Z,11.37
2018-08-19T21:45:03.713Z,11.10
2018-08-19T21:48:16.050Z,10.93
2018-08-19T21:51:20.284Z,10.87
2018-08-19T21:54:24.546Z,10.93
2018-08-19T21:57:28.792Z,10.57
2018-08-19T22:00:36.005Z,9.37
2018-08-19T22:03:45.478Z,10.93
2018-08-19T22:06:50.070Z,10.10
2018-08-19T22:09:54.342Z,10.00
2018-08-19T22:12:58.571Z,10.27
2018-08-19T22:16:02.817Z,10.00
2018-08-19T22:19:07.037Z,8.97
2018-08-19T22:22:11.273Z,8.40
2018-08-19T22:25:15.532Z,8.17
2018-08-19T22:28:19.766Z,9.17
2018-08-19T22:31:27.210Z,9.90
2018-08-19T22:34:31.428Z,9.93
2018-08-19T22:37:35.677Z,9.50
2018-08-19T22:40:39.924Z,11.03
2018-08-19T22:43:44.179Z,9.80
2018-08-19T22:46:48.442Z,10.03
2018-08-19T22:49:52.668Z,10.20
2018-08-19T22:52:56.952Z,10.50
2018-08-19T22:56:01.285Z,10.33
2018-08-19T22:59:05.543Z,10.60
2018-08-19T23:02:09.784Z,11.20
2018-08-19T23:05:14.026Z,11.33
2018-08-19T23:08:22.356Z,12.57
2018-08-19T23:11:33.579Z,12.60
2018-08-19T23:14:54.906Z,11.50
2018-08-19T23:17:59.181Z,11.97
2018-08-19T23:21:03.461Z,12.50
2018-08-19T23:24:07.749Z,11.50
2018-08-19T23:27:11.992Z,13.20
2018-08-19T23:30:16.241Z,12.03
2018-08-19T23:33:20.666Z,12.73
2018-08-19T23:36:24.902Z,13.10
2018-08-19T23:39:29.178Z,14.27
2018-08-19T23:42:33.414Z,14.43
2018-08-19T23:45:37.750Z,13.30
2018-08-19T23:48:41.968Z,13.73
2018-08-19T23:51:46.237Z,13.77
2018-08-19T23:54:50.469Z,13.27
2018-08-19T23:57:54.720Z,12.33
